sensor_id;sensor_type;location;lat;lon;timestamp;P1;durP1;ratioP1;P2;durP2;ratioP2
54705;SDS011;40603;48.774;8.916;2022-08-20T00:00:50;776.53;;;699.83;;
54705;SDS011;40603;48.774;8.916;2022-08-20T00:05:53;766.88;;;692.35;;
54705;SDS011;40603;48.774;8.916;2022-08-20T00:08:25;743.70;;;671.38;;
54705;SDS011;40603;48.774;8.916;2022-08-20T00:10:51;757.55;;;683.55;;
54705;SDS011;40603;48.774;8.916;2022-08-20T00:13:19;754.22;;;678.92;;
54705;SDS011;40603;48.774;8.916;2022-08-20T00:15:47;755.53;;;681.58;;
54705;SDS011;40603;48.774;8.916;2022-08-20T00:18:12;761.45;;;688.17;;
54705;SDS011;40603;48.774;8.916;2022-08-20T00:20:39;763.70;;;687.67;;
54705;SDS011;40603;48.774;8.916;2022-08-20T00:25:34;616.47;;;560.22;;
54705;SDS011;40603;48.774;8.916;2022-08-20T00:28:00;716.42;;;647.50;;
54705;SDS011;40603;48.774;8.916;2022-08-20T00:30:27;755.88;;;681.33;;
54705;SDS011;40603;48.774;8.916;2022-08-20T00:32:55;750.58;;;677.40;;
54705;SDS011;40603;48.774;8.916;2022-08-20T00:35:23;738.35;;;669.10;;
54705;SDS011;40603;48.774;8.916;2022-08-20T00:37:50;765.50;;;688.58;;
54705;SDS011;40603;48.774;8.916;2022-08-20T00:40:17;761.80;;;685.58;;
54705;SDS011;40603;48.774;8.916;2022-08-20T00:45:14;606.30;;;550.45;;
54705;SDS011;40603;48.774;8.916;2022-08-20T00:47:42;724.47;;;655.20;;
54705;SDS011;40603;48.774;8.916;2022-08-20T00:50:08;752.67;;;680.63;;
54705;SDS011;40603;48.774;8.916;2022-08-20T00:52:35;758.97;;;686.65;;
54705;SDS011;40603;48.774;8.916;2022-08-20T00:55:02;792.13;;;716.30;;
54705;SDS011;40603;48.774;8.916;2022-08-20T00:57:30;813.25;;;735.90;;
54705;SDS011;40603;48.774;8.916;2022-08-20T01:00:00;768.58;;;695.97;;
54705;SDS011;40603;48.774;8.916;2022-08-20T01:02:27;783.15;;;706.58;;
54705;SDS011;40603;48.774;8.916;2022-08-20T01:04:54;798.05;;;720.60;;
54705;SDS011;40603;48.774;8.916;2022-08-20T01:07:23;822.45;;;742.75;;
54705;SDS011;40603;48.774;8.916;2022-08-20T01:10:00;799.17;;;722.00;;
54705;SDS011;40603;48.774;8.916;2022-08-20T01:12:30;830.45;;;749.50;;
54705;SDS011;40603;48.774;8.916;2022-08-20T01:14:57;834.55;;;749.70;;
54705;SDS011;40603;48.774;8.916;2022-08-20T01:17:24;856.25;;;768.25;;
54705;SDS011;40603;48.774;8.916;2022-08-20T01:19:55;861.35;;;774.47;;
54705;SDS011;40603;48.774;8.916;2022-08-20T01:22:34;843.08;;;756.13;;
54705;SDS011;40603;48.774;8.916;2022-08-20T01:25:29;854.45;;;768.67;;
54705;SDS011;40603;48.774;8.916;2022-08-20T01:28:03;787.20;;;709.25;;
54705;SDS011;40603;48.774;8.916;2022-08-20T01:30:28;845.65;;;762.40;;
54705;SDS011;40603;48.774;8.916;2022-08-20T01:32:55;819.70;;;737.10;;
54705;SDS011;40603;48.774;8.916;2022-08-20T01:35:21;862.85;;;772.60;;
54705;SDS011;40603;48.774;8.916;2022-08-20T01:37:47;833.80;;;751.65;;
54705;SDS011;40603;48.774;8.916;2022-08-20T01:40:13;812.67;;;731.88;;
54705;SDS011;40603;48.774;8.916;2022-08-20T01:42:43;836.45;;;753.25;;
54705;SDS011;40603;48.774;8.916;2022-08-20T01:45:11;824.08;;;744.30;;
54705;SDS011;40603;48.774;8.916;2022-08-20T01:47:36;849.47;;;765.67;;
54705;SDS011;40603;48.774;8.916;2022-08-20T01:50:05;888.97;;;798.42;;
54705;SDS011;40603;48.774;8.916;2022-08-20T01:55:23;851.08;;;769.10;;
54705;SDS011;40603;48.774;8.916;2022-08-20T01:57:50;815.22;;;736.03;;
54705;SDS011;40603;48.774;8.916;2022-08-20T02:00:16;871.92;;;781.15;;
54705;SDS011;40603;48.774;8.916;2022-08-20T02:02:43;887.75;;;795.97;;
54705;SDS011;40603;48.774;8.916;2022-08-20T02:05:08;890.97;;;802.47;;
54705;SDS011;40603;48.774;8.916;2022-08-20T02:07:35;889.05;;;799.05;;
54705;SDS011;40603;48.774;8.916;2022-08-20T02:10:02;918.70;;;815.50;;
54705;SDS011;40603;48.774;8.916;2022-08-20T02:12:29;941.85;;;834.83;;
54705;SDS011;40603;48.774;8.916;2022-08-20T02:14:54;880.10;;;789.72;;
54705;SDS011;40603;48.774;8.916;2022-08-20T02:17:21;923.03;;;822.10;;
54705;SDS011;40603;48.774;8.916;2022-08-20T02:19:49;882.33;;;791.90;;
54705;SDS011;40603;48.774;8.916;2022-08-20T02:24:51;960.58;;;851.10;;
54705;SDS011;40603;48.774;8.916;2022-08-20T02:27:17;989.30;;;877.50;;
54705;SDS011;40603;48.774;8.916;2022-08-20T02:29:44;959.08;;;847.67;;
54705;SDS011;40603;48.774;8.916;2022-08-20T02:32:10;976.78;;;857.58;;
54705;SDS011;40603;48.774;8.916;2022-08-20T02:34:36;1036.38;;;881.30;;
54705;SDS011;40603;48.774;8.916;2022-08-20T02:37:02;949.45;;;846.72;;
54705;SDS011;40603;48.774;8.916;2022-08-20T02:39:28;949.58;;;845.63;;
54705;SDS011;40603;48.774;8.916;2022-08-20T02:41:53;1094.65;;;850.53;;
54705;SDS011;40603;48.774;8.916;2022-08-20T02:44:19;1008.45;;;860.70;;
54705;SDS011;40603;48.774;8.916;2022-08-20T02:46:45;1036.45;;;861.00;;
54705;SDS011;40603;48.774;8.916;2022-08-20T02:49:15;958.30;;;854.03;;
54705;SDS011;40603;48.774;8.916;2022-08-20T02:51:41;970.78;;;861.22;;
54705;SDS011;40603;48.774;8.916;2022-08-20T02:54:07;967.95;;;864.08;;
54705;SDS011;40603;48.774;8.916;2022-08-20T02:56:33;958.92;;;850.05;;
54705;SDS011;40603;48.774;8.916;2022-08-20T02:58:58;933.78;;;834.78;;
54705;SDS011;40603;48.774;8.916;2022-08-20T03:01:23;947.58;;;843.42;;
54705;SDS011;40603;48.774;8.916;2022-08-20T03:03:49;1014.75;;;889.20;;
54705;SDS011;40603;48.774;8.916;2022-08-20T03:06:14;951.83;;;852.22;;
54705;SDS011;40603;48.774;8.916;2022-08-20T03:08:40;958.03;;;853.85;;
54705;SDS011;40603;48.774;8.916;2022-08-20T03:11:06;994.80;;;885.38;;
54705;SDS011;40603;48.774;8.916;2022-08-20T03:13:32;973.10;;;865.90;;
54705;SDS011;40603;48.774;8.916;2022-08-20T03:15:59;963.10;;;859.42;;
54705;SDS011;40603;48.774;8.916;2022-08-20T03:18:26;956.47;;;852.78;;
54705;SDS011;40603;48.774;8.916;2022-08-20T03:20:55;971.92;;;864.85;;
54705;SDS011;40603;48.774;8.916;2022-08-20T03:23:21;957.63;;;845.88;;
54705;SDS011;40603;48.774;8.916;2022-08-20T03:25:46;987.88;;;881.60;;
54705;SDS011;40603;48.774;8.916;2022-08-20T03:28:12;959.00;;;854.28;;
54705;SDS011;40603;48.774;8.916;2022-08-20T03:30:38;962.88;;;858.15;;
54705;SDS011;40603;48.774;8.916;2022-08-20T03:33:04;970.78;;;865.72;;
54705;SDS011;40603;48.774;8.916;2022-08-20T03:35:30;973.10;;;862.72;;
54705;SDS011;40603;48.774;8.916;2022-08-20T03:37:55;973.60;;;870.10;;
54705;SDS011;40603;48.774;8.916;2022-08-20T03:40:27;984.95;;;878.47;;
54705;SDS011;40603;48.774;8.916;2022-08-20T03:42:54;946.80;;;845.67;;
54705;SDS011;40603;48.774;8.916;2022-08-20T03:45:20;954.03;;;851.30;;
54705;SDS011;40603;48.774;8.916;2022-08-20T03:47:47;971.42;;;865.17;;
54705;SDS011;40603;48.774;8.916;2022-08-20T03:50:13;964.53;;;860.38;;
54705;SDS011;40603;48.774;8.916;2022-08-20T03:52:38;983.88;;;876.97;;
54705;SDS011;40603;48.774;8.916;2022-08-20T03:55:07;972.45;;;868.10;;
54705;SDS011;40603;48.774;8.916;2022-08-20T03:57:33;988.80;;;881.92;;
54705;SDS011;40603;48.774;8.916;2022-08-20T03:59:58;967.97;;;859.83;;
54705;SDS011;40603;48.774;8.916;2022-08-20T04:02:24;992.30;;;885.75;;
54705;SDS011;40603;48.774;8.916;2022-08-20T04:04:49;969.70;;;865.90;;
54705;SDS011;40603;48.774;8.916;2022-08-20T04:07:16;968.47;;;862.83;;
54705;SDS011;40603;48.774;8.916;2022-08-20T04:09:55;961.28;;;857.33;;
54705;SDS011;40603;48.774;8.916;2022-08-20T04:12:21;1000.47;;;891.97;;
54705;SDS011;40603;48.774;8.916;2022-08-20T04:14:47;990.08;;;882.83;;
54705;SDS011;40603;48.774;8.916;2022-08-20T04:17:13;975.90;;;869.65;;
54705;SDS011;40603;48.774;8.916;2022-08-20T04:19:40;990.50;;;878.20;;
54705;SDS011;40603;48.774;8.916;2022-08-20T04:22:06;997.15;;;869.35;;
54705;SDS011;40603;48.774;8.916;2022-08-20T04:24:32;980.83;;;870.75;;
54705;SDS011;40603;48.774;8.916;2022-08-20T04:26:59;961.67;;;858.60;;
54705;SDS011;40603;48.774;8.916;2022-08-20T04:29:26;964.72;;;859.97;;
54705;SDS011;40603;48.774;8.916;2022-08-20T04:31:51;978.65;;;862.65;;
54705;SDS011;40603;48.774;8.916;2022-08-20T04:34:17;958.85;;;856.45;;
54705;SDS011;40603;48.774;8.916;2022-08-20T04:36:43;989.75;;;878.72;;
54705;SDS011;40603;48.774;8.916;2022-08-20T04:39:11;968.63;;;864.47;;
54705;SDS011;40603;48.774;8.916;2022-08-20T04:41:37;954.90;;;849.20;;
54705;SDS011;40603;48.774;8.916;2022-08-20T04:44:03;933.13;;;832.22;;
54705;SDS011;40603;48.774;8.916;2022-08-20T04:46:28;965.75;;;860.33;;
54705;SDS011;40603;48.774;8.916;2022-08-20T04:48:56;983.03;;;875.97;;
54705;SDS011;40603;48.774;8.916;2022-08-20T04:51:21;916.28;;;817.80;;
54705;SDS011;40603;48.774;8.916;2022-08-20T04:53:47;924.95;;;826.47;;
54705;SDS011;40603;48.774;8.916;2022-08-20T04:56:12;927.10;;;830.28;;
54705;SDS011;40603;48.774;8.916;2022-08-20T04:58:38;919.13;;;823.28;;
54705;SDS011;40603;48.774;8.916;2022-08-20T05:01:06;922.13;;;823.15;;
54705;SDS011;40603;48.774;8.916;2022-08-20T05:06:02;986.20;;;861.78;;
54705;SDS011;40603;48.774;8.916;2022-08-20T05:08:28;995.78;;;884.55;;
54705;SDS011;40603;48.774;8.916;2022-08-20T05:10:53;952.70;;;850.65;;
54705;SDS011;40603;48.774;8.916;2022-08-20T05:13:19;949.00;;;846.70;;
54705;SDS011;40603;48.774;8.916;2022-08-20T05:15:45;943.95;;;843.70;;
54705;SDS011;40603;48.774;8.916;2022-08-20T05:18:12;904.90;;;811.25;;
54705;SDS011;40603;48.774;8.916;2022-08-20T05:20:38;912.92;;;816.55;;
54705;SDS011;40603;48.774;8.916;2022-08-20T05:23:08;906.20;;;810.38;;
54705;SDS011;40603;48.774;8.916;2022-08-20T05:25:34;894.90;;;799.30;;
54705;SDS011;40603;48.774;8.916;2022-08-20T05:28:02;903.50;;;808.40;;
54705;SDS011;40603;48.774;8.916;2022-08-20T05:30:36;937.63;;;837.58;;
54705;SDS011;40603;48.774;8.916;2022-08-20T05:35:33;970.10;;;865.55;;
54705;SDS011;40603;48.774;8.916;2022-08-20T05:38:02;963.17;;;856.17;;
54705;SDS011;40603;48.774;8.916;2022-08-20T05:40:31;988.10;;;875.55;;
54705;SDS011;40603;48.774;8.916;2022-08-20T05:42:57;948.30;;;846.08;;
54705;SDS011;40603;48.774;8.916;2022-08-20T05:45:22;969.83;;;861.92;;
54705;SDS011;40603;48.774;8.916;2022-08-20T05:47:48;957.83;;;853.63;;
54705;SDS011;40603;48.774;8.916;2022-08-20T05:50:13;961.92;;;859.30;;
54705;SDS011;40603;48.774;8.916;2022-08-20T05:52:40;972.78;;;867.88;;
54705;SDS011;40603;48.774;8.916;2022-08-20T05:55:06;986.05;;;879.80;;
54705;SDS011;40603;48.774;8.916;2022-08-20T05:57:33;1011.15;;;891.67;;
54705;SDS011;40603;48.774;8.916;2022-08-20T05:59:59;1043.53;;;913.95;;
54705;SDS011;40603;48.774;8.916;2022-08-20T06:02:26;1019.42;;;896.25;;
54705;SDS011;40603;48.774;8.916;2022-08-20T06:05:11;1002.17;;;888.38;;
54705;SDS011;40603;48.774;8.916;2022-08-20T06:07:36;1043.60;;;910.38;;
54705;SDS011;40603;48.774;8.916;2022-08-20T06:10:02;1096.53;;;926.42;;
54705;SDS011;40603;48.774;8.916;2022-08-20T06:12:29;1053.15;;;907.25;;
54705;SDS011;40603;48.774;8.916;2022-08-20T06:14:54;1037.65;;;916.85;;
54705;SDS011;40603;48.774;8.916;2022-08-20T06:17:20;1055.97;;;912.72;;
54705;SDS011;40603;48.774;8.916;2022-08-20T06:19:46;1141.95;;;953.88;;
54705;SDS011;40603;48.774;8.916;2022-08-20T06:22:12;1090.13;;;924.53;;
54705;SDS011;40603;48.774;8.916;2022-08-20T06:24:38;1103.60;;;932.17;;
54705;SDS011;40603;48.774;8.916;2022-08-20T06:27:04;1083.50;;;933.35;;
54705;SDS011;40603;48.774;8.916;2022-08-20T06:29:30;1079.78;;;935.25;;
54705;SDS011;40603;48.774;8.916;2022-08-20T06:31:58;1130.43;;;958.70;;
54705;SDS011;40603;48.774;8.916;2022-08-20T06:34:25;1100.50;;;939.05;;
54705;SDS011;40603;48.774;8.916;2022-08-20T06:36:52;1147.45;;;943.92;;
54705;SDS011;40603;48.774;8.916;2022-08-20T06:39:18;1163.43;;;937.28;;
54705;SDS011;40603;48.774;8.916;2022-08-20T06:41:43;1139.45;;;941.03;;
54705;SDS011;40603;48.774;8.916;2022-08-20T06:44:08;1164.13;;;940.83;;
54705;SDS011;40603;48.774;8.916;2022-08-20T06:46:34;1178.53;;;943.85;;
54705;SDS011;40603;48.774;8.916;2022-08-20T06:49:00;1145.20;;;943.95;;
54705;SDS011;40603;48.774;8.916;2022-08-20T06:51:27;1147.60;;;943.63;;
54705;SDS011;40603;48.774;8.916;2022-08-20T06:53:53;1140.78;;;933.67;;
54705;SDS011;40603;48.774;8.916;2022-08-20T06:56:18;1103.57;;;927.20;;
54705;SDS011;40603;48.774;8.916;2022-08-20T06:58:43;1111.85;;;909.42;;
54705;SDS011;40603;48.774;8.916;2022-08-20T07:01:09;1145.93;;;927.22;;
54705;SDS011;40603;48.774;8.916;2022-08-20T07:03:35;1103.18;;;911.70;;
54705;SDS011;40603;48.774;8.916;2022-08-20T07:06:02;1157.68;;;906.38;;
54705;SDS011;40603;48.774;8.916;2022-08-20T07:08:27;1088.10;;;872.08;;
54705;SDS011;40603;48.774;8.916;2022-08-20T07:10:53;1092.20;;;866.15;;
54705;SDS011;40603;48.774;8.916;2022-08-20T07:13:18;1057.80;;;875.92;;
54705;SDS011;40603;48.774;8.916;2022-08-20T07:15:43;1004.92;;;837.38;;
54705;SDS011;40603;48.774;8.916;2022-08-20T07:18:09;1008.08;;;821.33;;
54705;SDS011;40603;48.774;8.916;2022-08-20T07:20:35;960.90;;;814.55;;
54705;SDS011;40603;48.774;8.916;2022-08-20T07:23:02;817.60;;;721.75;;
54705;SDS011;40603;48.774;8.916;2022-08-20T07:25:28;835.45;;;730.30;;
54705;SDS011;40603;48.774;8.916;2022-08-20T07:27:58;905.92;;;774.22;;
54705;SDS011;40603;48.774;8.916;2022-08-20T07:30:25;793.00;;;705.50;;
54705;SDS011;40603;48.774;8.916;2022-08-20T07:33:09;719.47;;;640.30;;
54705;SDS011;40603;48.774;8.916;2022-08-20T07:35:38;755.35;;;667.72;;
54705;SDS011;40603;48.774;8.916;2022-08-20T07:38:03;781.55;;;696.58;;
54705;SDS011;40603;48.774;8.916;2022-08-20T07:40:30;795.28;;;702.45;;
54705;SDS011;40603;48.774;8.916;2022-08-20T07:42:58;794.22;;;694.42;;
54705;SDS011;40603;48.774;8.916;2022-08-20T07:45:27;736.47;;;651.95;;
54705;SDS011;40603;48.774;8.916;2022-08-20T07:47:53;682.00;;;610.85;;
54705;SDS011;40603;48.774;8.916;2022-08-20T07:50:21;724.90;;;645.88;;
54705;SDS011;40603;48.774;8.916;2022-08-20T07:52:48;677.47;;;607.10;;
54705;SDS011;40603;48.774;8.916;2022-08-20T07:55:16;658.53;;;588.80;;
54705;SDS011;40603;48.774;8.916;2022-08-20T07:57:42;657.15;;;588.42;;
54705;SDS011;40603;48.774;8.916;2022-08-20T08:00:09;630.33;;;564.95;;
54705;SDS011;40603;48.774;8.916;2022-08-20T08:02:35;736.53;;;640.63;;
54705;SDS011;40603;48.774;8.916;2022-08-20T08:05:01;707.40;;;627.53;;
54705;SDS011;40603;48.774;8.916;2022-08-20T08:07:27;673.67;;;600.97;;
54705;SDS011;40603;48.774;8.916;2022-08-20T08:09:53;509.75;;;464.98;;
54705;SDS011;40603;48.774;8.916;2022-08-20T08:12:19;493.95;;;450.23;;
54705;SDS011;40603;48.774;8.916;2022-08-20T08:14:45;467.42;;;427.85;;
54705;SDS011;40603;48.774;8.916;2022-08-20T08:17:11;594.15;;;536.45;;
54705;SDS011;40603;48.774;8.916;2022-08-20T08:19:41;620.28;;;556.55;;
54705;SDS011;40603;48.774;8.916;2022-08-20T08:22:10;534.95;;;486.20;;
54705;SDS011;40603;48.774;8.916;2022-08-20T08:24:37;473.45;;;433.80;;
54705;SDS011;40603;48.774;8.916;2022-08-20T08:27:03;506.02;;;461.27;;
54705;SDS011;40603;48.774;8.916;2022-08-20T08:29:29;403.75;;;371.77;;
54705;SDS011;40603;48.774;8.916;2022-08-20T08:31:54;477.35;;;434.92;;
54705;SDS011;40603;48.774;8.916;2022-08-20T08:34:20;343.15;;;316.83;;
54705;SDS011;40603;48.774;8.916;2022-08-20T08:36:48;325.92;;;300.95;;
54705;SDS011;40603;48.774;8.916;2022-08-20T08:39:14;328.30;;;303.27;;
54705;SDS011;40603;48.774;8.916;2022-08-20T08:41:41;461.08;;;421.75;;
54705;SDS011;40603;48.774;8.916;2022-08-20T08:44:16;406.48;;;375.15;;
54705;SDS011;40603;48.774;8.916;2022-08-20T08:46:48;398.25;;;368.13;;
54705;SDS011;40603;48.774;8.916;2022-08-20T08:49:17;350.60;;;324.13;;
54705;SDS011;40603;48.774;8.916;2022-08-20T08:51:47;297.73;;;275.63;;
54705;SDS011;40603;48.774;8.916;2022-08-20T08:54:15;440.42;;;404.60;;
54705;SDS011;40603;48.774;8.916;2022-08-20T08:56:43;387.02;;;356.73;;
54705;SDS011;40603;48.774;8.916;2022-08-20T08:59:08;420.77;;;387.77;;
54705;SDS011;40603;48.774;8.916;2022-08-20T09:01:39;289.63;;;267.27;;
54705;SDS011;40603;48.774;8.916;2022-08-20T09:04:07;296.58;;;274.70;;
54705;SDS011;40603;48.774;8.916;2022-08-20T09:06:33;310.15;;;287.10;;
54705;SDS011;40603;48.774;8.916;2022-08-20T09:08:59;284.50;;;263.70;;
54705;SDS011;40603;48.774;8.916;2022-08-20T09:11:27;247.20;;;229.35;;
54705;SDS011;40603;48.774;8.916;2022-08-20T09:13:53;272.45;;;252.27;;
54705;SDS011;40603;48.774;8.916;2022-08-20T09:16:19;298.05;;;275.60;;
54705;SDS011;40603;48.774;8.916;2022-08-20T09:18:46;324.25;;;299.90;;
54705;SDS011;40603;48.774;8.916;2022-08-20T09:21:11;288.92;;;267.55;;
54705;SDS011;40603;48.774;8.916;2022-08-20T09:23:38;278.88;;;258.00;;
54705;SDS011;40603;48.774;8.916;2022-08-20T09:26:03;250.40;;;232.05;;
54705;SDS011;40603;48.774;8.916;2022-08-20T09:28:29;265.08;;;246.63;;
54705;SDS011;40603;48.774;8.916;2022-08-20T09:30:54;289.50;;;269.15;;
54705;SDS011;40603;48.774;8.916;2022-08-20T09:33:19;237.48;;;221.50;;
54705;SDS011;40603;48.774;8.916;2022-08-20T09:35:45;266.63;;;242.43;;
54705;SDS011;40603;48.774;8.916;2022-08-20T09:38:10;148.93;;;139.50;;
54705;SDS011;40603;48.774;8.916;2022-08-20T09:40:36;193.35;;;180.55;;
54705;SDS011;40603;48.774;8.916;2022-08-20T09:43:03;245.50;;;228.15;;
54705;SDS011;40603;48.774;8.916;2022-08-20T09:45:29;334.23;;;308.70;;
54705;SDS011;40603;48.774;8.916;2022-08-20T09:47:55;278.65;;;259.35;;
54705;SDS011;40603;48.774;8.916;2022-08-20T09:50:20;337.73;;;312.85;;
54705;SDS011;40603;48.774;8.916;2022-08-20T09:52:47;465.25;;;427.77;;
54705;SDS011;40603;48.774;8.916;2022-08-20T09:55:20;393.15;;;361.45;;
54705;SDS011;40603;48.774;8.916;2022-08-20T09:57:58;383.85;;;353.30;;
54705;SDS011;40603;48.774;8.916;2022-08-20T10:00:25;601.80;;;540.45;;
54705;SDS011;40603;48.774;8.916;2022-08-20T10:02:50;715.53;;;640.47;;
54705;SDS011;40603;48.774;8.916;2022-08-20T10:05:16;720.13;;;644.40;;
54705;SDS011;40603;48.774;8.916;2022-08-20T10:07:41;863.95;;;744.95;;
54705;SDS011;40603;48.774;8.916;2022-08-20T10:10:08;893.40;;;756.47;;
54705;SDS011;40603;48.774;8.916;2022-08-20T10:12:35;966.40;;;862.03;;
54705;SDS011;40603;48.774;8.916;2022-08-20T10:15:01;1038.85;;;890.42;;
54705;SDS011;40603;48.774;8.916;2022-08-20T10:17:26;583.13;;;527.05;;
54705;SDS011;40603;48.774;8.916;2022-08-20T10:19:51;672.58;;;611.50;;
54705;SDS011;40603;48.774;8.916;2022-08-20T10:22:17;586.80;;;528.63;;
54705;SDS011;40603;48.774;8.916;2022-08-20T10:24:42;544.72;;;489.30;;
54705;SDS011;40603;48.774;8.916;2022-08-20T10:27:07;428.58;;;388.92;;
54705;SDS011;40603;48.774;8.916;2022-08-20T10:29:33;524.28;;;474.65;;
54705;SDS011;40603;48.774;8.916;2022-08-20T10:32:06;392.45;;;356.17;;
54705;SDS011;40603;48.774;8.916;2022-08-20T10:34:33;475.92;;;433.48;;
54705;SDS011;40603;48.774;8.916;2022-08-20T10:36:59;447.83;;;408.58;;
54705;SDS011;40603;48.774;8.916;2022-08-20T10:39:24;283.92;;;257.42;;
54705;SDS011;40603;48.774;8.916;2022-08-20T10:41:49;437.88;;;397.73;;
54705;SDS011;40603;48.774;8.916;2022-08-20T10:44:15;292.75;;;266.00;;
54705;SDS011;40603;48.774;8.916;2022-08-20T10:46:41;300.40;;;272.90;;
54705;SDS011;40603;48.774;8.916;2022-08-20T10:49:07;281.98;;;256.70;;
54705;SDS011;40603;48.774;8.916;2022-08-20T10:51:32;369.90;;;336.23;;
54705;SDS011;40603;48.774;8.916;2022-08-20T10:53:57;286.50;;;260.20;;
54705;SDS011;40603;48.774;8.916;2022-08-20T10:56:22;378.15;;;342.73;;
54705;SDS011;40603;48.774;8.916;2022-08-20T10:58:48;475.80;;;428.48;;
54705;SDS011;40603;48.774;8.916;2022-08-20T11:01:13;468.70;;;424.20;;
54705;SDS011;40603;48.774;8.916;2022-08-20T11:03:38;434.90;;;393.50;;
54705;SDS011;40603;48.774;8.916;2022-08-20T11:06:04;460.73;;;416.33;;
54705;SDS011;40603;48.774;8.916;2022-08-20T11:08:30;514.42;;;466.13;;
54705;SDS011;40603;48.774;8.916;2022-08-20T11:10:55;711.90;;;644.70;;
54705;SDS011;40603;48.774;8.916;2022-08-20T11:13:21;821.90;;;737.42;;
54705;SDS011;40603;48.774;8.916;2022-08-20T11:15:46;615.03;;;558.65;;
54705;SDS011;40603;48.774;8.916;2022-08-20T11:18:12;856.42;;;770.88;;
54705;SDS011;40603;48.774;8.916;2022-08-20T11:20:37;884.88;;;795.58;;
54705;SDS011;40603;48.774;8.916;2022-08-20T11:23:02;961.13;;;858.63;;
54705;SDS011;40603;48.774;8.916;2022-08-20T11:25:28;960.42;;;858.75;;
54705;SDS011;40603;48.774;8.916;2022-08-20T11:27:54;1101.60;;;917.80;;
54705;SDS011;40603;48.774;8.916;2022-08-20T11:30:21;1001.85;;;884.75;;
54705;SDS011;40603;48.774;8.916;2022-08-20T11:32:48;978.78;;;872.45;;
54705;SDS011;40603;48.774;8.916;2022-08-20T11:35:14;994.97;;;881.33;;
54705;SDS011;40603;48.774;8.916;2022-08-20T11:37:39;990.47;;;881.30;;
54705;SDS011;40603;48.774;8.916;2022-08-20T11:40:04;1134.00;;;888.40;;
54705;SDS011;40603;48.774;8.916;2022-08-20T11:42:31;1086.47;;;861.88;;
54705;SDS011;40603;48.774;8.916;2022-08-20T11:44:57;1140.20;;;886.60;;
54705;SDS011;40603;48.774;8.916;2022-08-20T11:47:24;1092.30;;;866.65;;
54705;SDS011;40603;48.774;8.916;2022-08-20T11:49:58;910.95;;;795.70;;
54705;SDS011;40603;48.774;8.916;2022-08-20T11:52:25;925.58;;;785.22;;
54705;SDS011;40603;48.774;8.916;2022-08-20T11:54:51;803.65;;;717.65;;
54705;SDS011;40603;48.774;8.916;2022-08-20T11:57:20;788.22;;;707.03;;
54705;SDS011;40603;48.774;8.916;2022-08-20T11:59:51;794.67;;;710.10;;
54705;SDS011;40603;48.774;8.916;2022-08-20T12:02:17;665.50;;;601.95;;
54705;SDS011;40603;48.774;8.916;2022-08-20T12:04:42;638.90;;;577.88;;
54705;SDS011;40603;48.774;8.916;2022-08-20T12:07:09;576.60;;;523.90;;
54705;SDS011;40603;48.774;8.916;2022-08-20T12:09:38;533.67;;;489.85;;
54705;SDS011;40603;48.774;8.916;2022-08-20T12:12:04;581.70;;;530.88;;
54705;SDS011;40603;48.774;8.916;2022-08-20T12:14:30;623.92;;;566.80;;
54705;SDS011;40603;48.774;8.916;2022-08-20T12:16:55;617.53;;;560.97;;
54705;SDS011;40603;48.774;8.916;2022-08-20T12:19:20;506.10;;;464.52;;
54705;SDS011;40603;48.774;8.916;2022-08-20T12:21:45;414.83;;;382.83;;
54705;SDS011;40603;48.774;8.916;2022-08-20T12:24:11;394.35;;;363.77;;
54705;SDS011;40603;48.774;8.916;2022-08-20T12:26:36;388.42;;;359.90;;
54705;SDS011;40603;48.774;8.916;2022-08-20T12:29:01;441.13;;;406.98;;
54705;SDS011;40603;48.774;8.916;2022-08-20T12:31:27;424.73;;;392.58;;
54705;SDS011;40603;48.774;8.916;2022-08-20T12:33:52;333.35;;;309.92;;
54705;SDS011;40603;48.774;8.916;2022-08-20T12:36:17;373.10;;;345.33;;
54705;SDS011;40603;48.774;8.916;2022-08-20T12:38:43;202.98;;;189.80;;
54705;SDS011;40603;48.774;8.916;2022-08-20T12:41:08;157.82;;;147.95;;
54705;SDS011;40603;48.774;8.916;2022-08-20T12:43:33;171.75;;;160.43;;
54705;SDS011;40603;48.774;8.916;2022-08-20T12:45:58;288.98;;;269.23;;
54705;SDS011;40603;48.774;8.916;2022-08-20T12:48:24;124.18;;;117.05;;
54705;SDS011;40603;48.774;8.916;2022-08-20T12:50:49;87.38;;;82.35;;
54705;SDS011;40603;48.774;8.916;2022-08-20T12:53:16;115.63;;;108.88;;
54705;SDS011;40603;48.774;8.916;2022-08-20T12:55:42;118.72;;;111.93;;
54705;SDS011;40603;48.774;8.916;2022-08-20T12:58:08;87.93;;;82.97;;
54705;SDS011;40603;48.774;8.916;2022-08-20T13:00:35;72.93;;;68.50;;
54705;SDS011;40603;48.774;8.916;2022-08-20T13:03:03;94.65;;;89.13;;
54705;SDS011;40603;48.774;8.916;2022-08-20T13:05:30;91.18;;;85.93;;
54705;SDS011;40603;48.774;8.916;2022-08-20T13:07:56;76.22;;;71.95;;
54705;SDS011;40603;48.774;8.916;2022-08-20T13:10:26;39.58;;;37.45;;
54705;SDS011;40603;48.774;8.916;2022-08-20T13:12:54;45.47;;;43.05;;
54705;SDS011;40603;48.774;8.916;2022-08-20T13:15:19;20.77;;;19.70;;
54705;SDS011;40603;48.774;8.916;2022-08-20T13:17:48;31.63;;;30.00;;
54705;SDS011;40603;48.774;8.916;2022-08-20T13:20:15;12.43;;;11.77;;
54705;SDS011;40603;48.774;8.916;2022-08-20T13:22:40;15.63;;;14.70;;
54705;SDS011;40603;48.774;8.916;2022-08-20T13:25:06;23.70;;;22.42;;
54705;SDS011;40603;48.774;8.916;2022-08-20T13:27:32;17.83;;;16.92;;
54705;SDS011;40603;48.774;8.916;2022-08-20T13:30:02;11.07;;;10.50;;
54705;SDS011;40603;48.774;8.916;2022-08-20T13:32:28;31.30;;;29.65;;
54705;SDS011;40603;48.774;8.916;2022-08-20T13:34:53;20.92;;;19.83;;
54705;SDS011;40603;48.774;8.916;2022-08-20T13:37:23;8.85;;;8.40;;
54705;SDS011;40603;48.774;8.916;2022-08-20T13:39:50;3.03;;;2.88;;
54705;SDS011;40603;48.774;8.916;2022-08-20T13:42:15;0.98;;;0.98;;
54705;SDS011;40603;48.774;8.916;2022-08-20T13:44:40;2.00;;;1.90;;
54705;SDS011;40603;48.774;8.916;2022-08-20T13:47:25;2.85;;;1.75;;
54705;SDS011;40603;48.774;8.916;2022-08-20T13:50:00;2.88;;;2.75;;
54705;SDS011;40603;48.774;8.916;2022-08-20T13:52:32;35.38;;;4.30;;
54705;SDS011;40603;48.774;8.916;2022-08-20T13:54:57;1.30;;;1.08;;
54705;SDS011;40603;48.774;8.916;2022-08-20T13:57:23;1.27;;;1.08;;
54705;SDS011;40603;48.774;8.916;2022-08-20T13:59:50;0.60;;;0.50;;
54705;SDS011;40603;48.774;8.916;2022-08-20T14:02:17;0.82;;;0.70;;
54705;SDS011;40603;48.774;8.916;2022-08-20T14:04:43;1.23;;;0.63;;
54705;SDS011;40603;48.774;8.916;2022-08-20T14:07:12;0.70;;;0.50;;
54705;SDS011;40603;48.774;8.916;2022-08-20T14:09:42;0.55;;;0.55;;
54705;SDS011;40603;48.774;8.916;2022-08-20T14:12:08;0.43;;;0.40;;
54705;SDS011;40603;48.774;8.916;2022-08-20T14:14:34;0.50;;;0.35;;